Time;durP1;ratioP1;P1;durP2;ratioP2;P2;SDS_P1;SDS_P2;PMS_P1;PMS_P2;Temp;Humidity;BMP_temperature;BMP_pressure;BME280_temperature;BME280_humidity;BME280_pressure;Samples;Min_cycle;Max_cycle;Signal;HPM_P1;HPM_P2
2022/08/22 00:01:38;;;;;;;14.40;7.40;;;;;;;;;;4943462;28;20469;-67
2022/08/22 00:04:06;;;;;;;18.50;7.75;;;;;;;;;;4948681;28;20481;-67
2022/08/22 00:06:43;;;;;;;16.33;7.32;;;;;;;;;;4947965;28;20259;-67
2022/08/22 00:09:30;;;;;;;19.40;7.47;;;;;;;;;;4947707;28;20033;-67
2022/08/22 00:12:15;;;;;;;16.27;7.13;;;;;;;;;;4942829;28;20037;-67
2022/08/22 00:14:41;;;;;;;17.92;7.93;;;;;;;;;;4945621;28;20027;-67
2022/08/22 00:17:19;;;;;;;21.88;7.68;;;;;;;;;;4949708;28;20073;-67
2022/08/22 00:19:55;;;;;;;15.48;6.47;;;;;;;;;;4944807;28;20085;-69
2022/08/22 00:22:30;;;;;;;17.20;7.60;;;;;;;;;;4945817;28;20035;-67
2022/08/22 00:25:15;;;;;;;19.90;7.38;;;;;;;;;;4944883;28;20639;-67
2022/08/22 00:27:47;;;;;;;15.23;6.90;;;;;;;;;;4945113;28;20062;-67
2022/08/22 00:30:16;;;;;;;19.02;7.22;;;;;;;;;;4949134;28;20034;-67
2022/08/22 00:32:50;;;;;;;20.65;7.32;;;;;;;;;;4946518;28;20035;-67
2022/08/22 00:35:19;;;;;;;16.05;7.38;;;;;;;;;;4946341;28;20093;-67
2022/08/22 00:37:52;;;;;;;23.10;8.32;;;;;;;;;;4946298;28;20034;-67
2022/08/22 00:40:27;;;;;;;18.80;7.10;;;;;;;;;;4946408;28;20030;-67
2022/08/22 00:42:59;;;;;;;19.70;6.35;;;;;;;;;;4942038;28;20098;-67
2022/08/22 00:45:44;;;;;;;20.13;8.02;;;;;;;;;;4945286;28;20028;-67
2022/08/22 00:48:25;;;;;;;18.02;8.10;;;;;;;;;;5027605;28;20070;-67
2022/08/22 00:50:59;;;;;;;17.23;7.78;;;;;;;;;;5024938;28;20033;-67
2022/08/22 00:53:43;;;;;;;24.10;7.82;;;;;;;;;;5025603;28;20025;-66
2022/08/22 00:56:28;;;;;;;14.68;8.13;;;;;;;;;;5026125;28;20033;-67
2022/08/22 00:59:12;;;;;;;22.55;8.52;;;;;;;;;;5027277;28;20174;-67
2022/08/22 01:01:58;;;;;;;18.58;9.35;;;;;;;;;;5024082;28;20048;-67
2022/08/22 01:04:27;;;;;;;22.23;9.18;;;;;;;;;;5010033;28;20025;-67
2022/08/22 01:07:03;;;;;;;21.48;8.48;;;;;;;;;;5024988;28;20038;-67
2022/08/22 01:09:30;;;;;;;31.17;9.32;;;;;;;;;;5029096;28;20029;-67
2022/08/22 01:11:56;;;;;;;26.58;8.90;;;;;;;;;;5022688;28;21598;-66
2022/08/22 01:14:32;;;;;;;20.75;8.73;;;;;;;;;;5023894;28;20075;-67
2022/08/22 01:17:01;;;;;;;18.90;8.65;;;;;;;;;;5024623;28;20021;-67
2022/08/22 01:19:42;;;;;;;18.50;8.82;;;;;;;;;;5025642;28;20036;-67
2022/08/22 01:22:14;;;;;;;18.58;8.52;;;;;;;;;;5023384;28;21196;-67
2022/08/22 01:25:16;;;;;;;20.73;8.48;;;;;;;;;;5026083;28;20036;-67
2022/08/22 01:27:52;;;;;;;23.70;8.70;;;;;;;;;;5027339;28;20047;-67
2022/08/22 01:30:31;;;;;;;20.27;9.57;;;;;;;;;;5022003;28;20033;-67
2022/08/22 01:32:57;;;;;;;24.35;9.85;;;;;;;;;;5022591;28;20156;-67
2022/08/22 01:35:29;;;;;;;19.73;9.18;;;;;;;;;;5025231;28;20204;-67
2022/08/22 01:38:01;;;;;;;16.42;7.95;;;;;;;;;;5021916;28;20602;-67
2022/08/22 01:40:46;;;;;;;22.23;8.43;;;;;;;;;;5027585;28;20091;-68
2022/08/22 01:43:36;;;;;;;18.65;8.50;;;;;;;;;;5021531;28;20112;-67
2022/08/22 01:46:08;;;;;;;23.60;9.03;;;;;;;;;;5006506;28;20055;-67
2022/08/22 01:48:41;;;;;;;20.17;8.50;;;;;;;;;;4942850;28;20793;-67
2022/08/22 01:51:26;;;;;;;17.40;8.32;;;;;;;;;;4943453;28;20070;-68
2022/08/22 01:54:05;;;;;;;18.80;8.70;;;;;;;;;;4942082;28;20041;-67
2022/08/22 01:56:34;;;;;;;18.45;8.57;;;;;;;;;;4948624;28;20300;-68
2022/08/22 01:59:03;;;;;;;20.48;9.32;;;;;;;;;;4942282;28;20031;-67
2022/08/22 02:01:38;;;;;;;20.63;9.65;;;;;;;;;;4942426;28;20043;-67
2022/08/22 02:04:10;;;;;;;14.18;7.85;;;;;;;;;;4945241;28;20032;-67
2022/08/22 02:06:55;;;;;;;22.10;8.05;;;;;;;;;;4945069;28;20034;-67
2022/08/22 02:09:40;;;;;;;18.88;7.35;;;;;;;;;;4939703;28;20410;-67
2022/08/22 02:12:24;;;;;;;17.23;7.20;;;;;;;;;;4943755;28;20028;-68
2022/08/22 02:15:02;;;;;;;17.45;6.60;;;;;;;;;;4940591;28;20024;-67
2022/08/22 02:17:31;;;;;;;21.17;6.85;;;;;;;;;;4943882;28;20035;-68
2022/08/22 02:20:17;;;;;;;20.83;7.05;;;;;;;;;;4943134;28;20034;-68
2022/08/22 02:22:53;;;;;;;23.98;6.30;;;;;;;;;;4942312;28;20421;-67
2022/08/22 02:25:25;;;;;;;15.38;6.88;;;;;;;;;;4944949;28;20032;-67
2022/08/22 02:28:00;;;;;;;18.73;6.90;;;;;;;;;;4942703;28;20031;-67
2022/08/22 02:30:30;;;;;;;18.63;6.32;;;;;;;;;;4941326;28;20330;-67
2022/08/22 02:33:07;;;;;;;15.38;6.50;;;;;;;;;;4937357;28;20038;-67
2022/08/22 02:35:37;;;;;;;19.35;6.75;;;;;;;;;;4946109;28;20453;-67
2022/08/22 02:38:12;;;;;;;19.90;7.18;;;;;;;;;;4947264;28;20032;-66
2022/08/22 02:40:45;;;;;;;16.55;6.40;;;;;;;;;;4944866;28;20046;-67
2022/08/22 02:43:23;;;;;;;22.02;6.20;;;;;;;;;;4947514;28;20035;-67
2022/08/22 02:45:58;;;;;;;17.67;6.50;;;;;;;;;;4948230;28;20063;-67
2022/08/22 02:48:38;;;;;;;19.20;6.78;;;;;;;;;;4943148;28;20039;-67
2022/08/22 02:51:14;;;;;;;23.70;7.60;;;;;;;;;;4961685;28;20106;-67
2022/08/22 02:53:49;;;;;;;18.35;6.70;;;;;;;;;;4946192;28;20073;-67
2022/08/22 02:56:24;;;;;;;19.67;6.85;;;;;;;;;;4948910;28;20031;-67
2022/08/22 02:58:52;;;;;;;16.35;6.50;;;;;;;;;;4949252;28;20032;-67
2022/08/22 03:01:28;;;;;;;16.90;6.65;;;;;;;;;;4947911;28;20488;-67
2022/08/22 03:04:13;;;;;;;17.85;7.70;;;;;;;;;;4946499;28;20550;-67
2022/08/22 03:06:43;;;;;;;17.35;8.45;;;;;;;;;;4943682;28;20024;-67
2022/08/22 03:09:15;;;;;;;19.45;7.55;;;;;;;;;;4950565;28;20077;-67
2022/08/22 03:12:04;;;;;;;19.35;7.47;;;;;;;;;;4945711;28;20031;-67
2022/08/22 03:14:44;;;;;;;19.95;7.78;;;;;;;;;;4935426;28;20493;-67
2022/08/22 03:17:16;;;;;;;17.33;7.18;;;;;;;;;;4946178;28;20061;-67
2022/08/22 03:19:45;;;;;;;21.20;8.32;;;;;;;;;;4947114;28;20031;-68
2022/08/22 03:22:16;;;;;;;21.23;7.15;;;;;;;;;;4944541;28;20190;-66
2022/08/22 03:24:47;;;;;;;14.27;7.43;;;;;;;;;;4962028;28;20050;-67
2022/08/22 03:27:23;;;;;;;15.02;6.78;;;;;;;;;;4946527;28;20048;-67
2022/08/22 03:29:53;;;;;;;15.48;7.40;;;;;;;;;;4945040;28;20039;-67
2022/08/22 03:32:21;;;;;;;21.60;7.63;;;;;;;;;;4942122;28;20026;-67
2022/08/22 03:35:02;;;;;;;16.92;7.20;;;;;;;;;;4946819;28;20550;-67
2022/08/22 03:37:31;;;;;;;27.95;7.57;;;;;;;;;;4947652;28;20488;-67
2022/08/22 03:40:00;;;;;;;23.33;12.63;;;;;;;;;;4945153;28;20027;-67
2022/08/22 03:42:38;;;;;;;19.85;7.18;;;;;;;;;;4945521;28;20035;-67
2022/08/22 03:45:14;;;;;;;16.98;6.60;;;;;;;;;;4943714;28;20027;-67
2022/08/22 03:47:59;;;;;;;22.87;7.20;;;;;;;;;;4942371;28;20043;-67
2022/08/22 03:50:43;;;;;;;17.33;7.18;;;;;;;;;;4944610;28;20268;-67
2022/08/22 03:53:21;;;;;;;16.70;6.07;;;;;;;;;;4941717;28;20343;-67
2022/08/22 03:55:47;;;;;;;20.73;6.00;;;;;;;;;;4944497;28;20483;-67
2022/08/22 03:58:32;;;;;;;24.85;7.38;;;;;;;;;;4946032;28;20035;-67
2022/08/22 04:01:04;;;;;;;20.45;6.78;;;;;;;;;;4945527;28;20388;-67
2022/08/22 04:03:40;;;;;;;21.65;6.72;;;;;;;;;;4945555;28;20085;-67
2022/08/22 04:06:16;;;;;;;16.00;7.55;;;;;;;;;;4944455;28;20050;-67
2022/08/22 04:08:54;;;;;;;20.20;6.68;;;;;;;;;;4948950;28;20031;-66
2022/08/22 04:11:40;;;;;;;15.02;6.00;;;;;;;;;;4946328;28;20072;-66
2022/08/22 04:14:23;;;;;;;17.13;5.72;;;;;;;;;;4942920;28;20477;-65
2022/08/22 04:16:59;;;;;;;18.80;6.65;;;;;;;;;;4944765;28;20481;-66
2022/08/22 04:19:44;;;;;;;13.73;5.93;;;;;;;;;;4944114;28;20031;-66
2022/08/22 04:22:29;;;;;;;17.60;6.72;;;;;;;;;;4943192;28;20043;-66
2022/08/22 04:25:01;;;;;;;15.80;6.85;;;;;;;;;;4945174;28;20108;-66
2022/08/22 04:27:46;;;;;;;19.90;7.97;;;;;;;;;;4953104;28;20508;-67
2022/08/22 04:30:19;;;;;;;16.25;7.63;;;;;;;;;;4942963;28;20043;-67
2022/08/22 04:32:49;;;;;;;21.13;6.82;;;;;;;;;;4945413;28;20046;-67
2022/08/22 04:35:18;;;;;;;20.38;7.55;;;;;;;;;;4942653;28;20038;-67
2022/08/22 04:37:47;;;;;;;18.70;7.70;;;;;;;;;;4944140;28;20518;-67
2022/08/22 04:40:28;;;;;;;19.42;6.88;;;;;;;;;;4945427;28;20045;-67
2022/08/22 04:43:00;;;;;;;21.25;6.50;;;;;;;;;;4945066;28;20114;-67
2022/08/22 04:45:32;;;;;;;17.27;6.70;;;;;;;;;;4946796;28;20548;-67
2022/08/22 04:48:09;;;;;;;20.27;7.63;;;;;;;;;;4944870;28;20046;-67
2022/08/22 04:50:57;;;;;;;20.23;7.60;;;;;;;;;;4946573;28;20031;-67
2022/08/22 04:53:44;;;;;;;22.52;8.35;;;;;;;;;;4950226;28;20031;-67
2022/08/22 04:56:18;;;;;;;18.33;6.70;;;;;;;;;;4949328;28;20050;-67
2022/08/22 04:58:58;;;;;;;20.52;8.10;;;;;;;;;;4947851;28;20035;-65
2022/08/22 05:01:25;;;;;;;20.70;8.35;;;;;;;;;;4947232;28;20035;-66
2022/08/22 05:04:05;;;;;;;17.00;7.85;;;;;;;;;;4932084;28;20430;-66
2022/08/22 05:06:33;;;;;;;23.88;7.88;;;;;;;;;;4940459;28;20138;-66
2022/08/22 05:09:00;;;;;;;16.15;7.20;;;;;;;;;;4948196;28;20046;-66
2022/08/22 05:11:27;;;;;;;20.70;7.63;;;;;;;;;;4947319;28;20031;-68
2022/08/22 05:13:56;;;;;;;19.27;7.75;;;;;;;;;;4940449;28;20230;-67
2022/08/22 05:16:33;;;;;;;28.70;8.55;;;;;;;;;;4945971;29;20085;-66
2022/08/22 05:19:05;;;;;;;14.38;7.03;;;;;;;;;;4946870;29;20034;-66
2022/08/22 05:21:33;;;;;;;20.00;7.72;;;;;;;;;;4941757;28;20092;-66
2022/08/22 05:24:05;;;;;;;24.98;6.90;;;;;;;;;;4938668;28;20035;-66
2022/08/22 05:26:36;;;;;;;24.52;8.05;;;;;;;;;;4939574;28;20039;-65
2022/08/22 05:29:03;;;;;;;15.73;7.55;;;;;;;;;;4941609;28;20043;-66
2022/08/22 05:31:35;;;;;;;18.73;7.65;;;;;;;;;;4941627;28;20031;-66
2022/08/22 05:34:06;;;;;;;19.70;7.45;;;;;;;;;;4950567;28;20075;-66
2022/08/22 05:36:35;;;;;;;16.77;7.80;;;;;;;;;;4950555;28;20031;-66
2022/08/22 05:39:21;;;;;;;20.95;7.47;;;;;;;;;;4944770;28;20370;-66
2022/08/22 05:41:47;;;;;;;16.27;7.03;;;;;;;;;;4944934;28;20031;-66
2022/08/22 05:44:25;;;;;;;24.05;8.70;;;;;;;;;;4942784;28;20031;-66
2022/08/22 05:46:56;;;;;;;26.95;8.60;;;;;;;;;;4941433;28;20513;-66
2022/08/22 05:49:27;;;;;;;19.00;8.20;;;;;;;;;;4937186;28;20042;-66
2022/08/22 05:51:56;;;;;;;18.17;7.30;;;;;;;;;;4943163;28;20203;-66
2022/08/22 05:54:26;;;;;;;15.73;7.15;;;;;;;;;;4943487;28;20035;-67
2022/08/22 05:57:01;;;;;;;25.08;7.32;;;;;;;;;;4941270;28;20468;-67
2022/08/22 05:59:29;;;;;;;27.73;8.25;;;;;;;;;;4945014;28;20031;-67
2022/08/22 06:02:07;;;;;;;21.67;7.95;;;;;;;;;;4942372;28;20035;-67
2022/08/22 06:04:33;;;;;;;24.10;8.57;;;;;;;;;;4949023;28;20035;-67
2022/08/22 06:07:25;;;;;;;19.63;8.65;;;;;;;;;;4947397;28;20027;-67
2022/08/22 06:10:00;;;;;;;22.60;8.57;;;;;;;;;;4943913;28;20036;-67
2022/08/22 06:12:29;;;;;;;18.85;7.78;;;;;;;;;;4943436;28;20027;-67
2022/08/22 06:15:16;;;;;;;19.30;7.15;;;;;;;;;;4966072;28;20055;-67
2022/08/22 06:17:45;;;;;;;18.42;7.20;;;;;;;;;;4950688;28;20033;-67
2022/08/22 06:20:16;;;;;;;19.63;8.07;;;;;;;;;;4940209;29;20093;-67
2022/08/22 06:22:44;;;;;;;18.95;7.75;;;;;;;;;;4946307;28;20035;-66
2022/08/22 06:25:13;;;;;;;18.67;7.22;;;;;;;;;;4948486;28;20058;-67
2022/08/22 06:27:40;;;;;;;24.85;7.55;;;;;;;;;;5016763;28;20033;-67
2022/08/22 06:30:07;;;;;;;21.10;8.10;;;;;;;;;;4983437;28;20551;-67
2022/08/22 06:32:35;;;;;;;17.98;7.40;;;;;;;;;;4951613;28;20477;-67
2022/08/22 06:35:04;;;;;;;13.23;6.88;;;;;;;;;;4955521;28;20027;-67
2022/08/22 06:37:33;;;;;;;20.98;8.18;;;;;;;;;;4982421;28;20029;-67
2022/08/22 06:39:59;;;;;;;20.70;7.80;;;;;;;;;;4949214;29;20484;-67
2022/08/22 06:42:28;;;;;;;15.57;7.68;;;;;;;;;;4946854;28;20234;-67
2022/08/22 06:45:08;;;;;;;19.45;7.47;;;;;;;;;;4946446;28;20035;-68
2022/08/22 06:48:00;;;;;;;16.40;7.20;;;;;;;;;;5017051;28;20049;-67
2022/08/22 06:50:34;;;;;;;21.52;6.88;;;;;;;;;;5003621;28;20072;-67
2022/08/22 06:53:07;;;;;;;14.65;6.80;;;;;;;;;;5030220;28;20029;-67
2022/08/22 06:55:34;;;;;;;17.35;7.35;;;;;;;;;;5035372;28;20474;-67
2022/08/22 06:58:05;;;;;;;20.05;7.32;;;;;;;;;;5015712;28;20025;-68
2022/08/22 07:00:32;;;;;;;17.08;7.57;;;;;;;;;;5027538;28;20085;-67
2022/08/22 07:03:01;;;;;;;18.75;7.82;;;;;;;;;;5030353;28;20033;-69
2022/08/22 07:05:29;;;;;;;18.70;8.10;;;;;;;;;;5029109;28;20033;-67
2022/08/22 07:07:56;;;;;;;21.50;7.72;;;;;;;;;;5027689;28;20029;-68
2022/08/22 07:10:22;;;;;;;22.25;8.32;;;;;;;;;;5039278;28;20041;-68
2022/08/22 07:12:50;;;;;;;20.23;8.63;;;;;;;;;;5021228;28;20030;-69
2022/08/22 07:15:33;;;;;;;20.52;7.95;;;;;;;;;;5030037;28;20022;-68
2022/08/22 07:18:01;;;;;;;20.90;7.40;;;;;;;;;;5032075;28;20037;-68
2022/08/22 07:20:30;;;;;;;17.92;6.97;;;;;;;;;;5029073;28;20021;-69
2022/08/22 07:23:01;;;;;;;16.65;7.22;;;;;;;;;;5036697;28;20033;-68
2022/08/22 07:25:27;;;;;;;21.67;7.20;;;;;;;;;;5035856;28;20446;-67
2022/08/22 07:28:01;;;;;;;17.92;7.32;;;;;;;;;;5042950;28;20502;-67
2022/08/22 07:30:45;;;;;;;25.42;7.50;;;;;;;;;;5029114;28;20026;-68
2022/08/22 07:33:24;;;;;;;20.38;6.85;;;;;;;;;;5044468;28;20025;-68
2022/08/22 07:35:56;;;;;;;17.02;7.10;;;;;;;;;;5029779;28;20034;-69
2022/08/22 07:38:32;;;;;;;23.45;7.70;;;;;;;;;;5028449;28;20036;-68
2022/08/22 07:41:13;;;;;;;21.85;7.35;;;;;;;;;;5027601;28;20041;-67
2022/08/22 07:43:39;;;;;;;25.75;8.20;;;;;;;;;;5033053;28;20124;-67
2022/08/22 07:46:13;;;;;;;21.17;8.30;;;;;;;;;;5033385;28;20032;-68
2022/08/22 07:48:48;;;;;;;19.35;7.15;;;;;;;;;;5029754;28;20478;-68
2022/08/22 07:51:16;;;;;;;20.02;7.03;;;;;;;;;;5026996;28;20029;-68
2022/08/22 07:53:48;;;;;;;19.17;7.35;;;;;;;;;;5030513;28;20038;-68
2022/08/22 07:56:18;;;;;;;20.80;7.82;;;;;;;;;;5034446;28;20033;-68
2022/08/22 07:58:45;;;;;;;23.93;8.07;;;;;;;;;;5033551;28;20033;-72
2022/08/22 08:01:15;;;;;;;16.15;7.28;;;;;;;;;;5023986;28;20041;-69
2022/08/22 08:03:42;;;;;;;23.70;7.63;;;;;;;;;;5029271;28;20025;-68
2022/08/22 08:06:08;;;;;;;19.30;7.20;;;;;;;;;;5029690;28;20025;-69
2022/08/22 08:08:41;;;;;;;22.50;7.10;;;;;;;;;;5028155;28;20103;-68
2022/08/22 08:11:09;;;;;;;14.05;6.50;;;;;;;;;;5030086;28;20449;-68
2022/08/22 08:13:37;;;;;;;18.88;6.65;;;;;;;;;;5030142;28;20033;-69
2022/08/22 08:16:06;;;;;;;18.15;6.90;;;;;;;;;;5027899;28;20506;-69
2022/08/22 08:18:33;;;;;;;13.52;6.00;;;;;;;;;;5030480;28;20129;-68
2022/08/22 08:21:02;;;;;;;21.42;7.30;;;;;;;;;;5029189;28;20068;-69
2022/08/22 08:23:30;;;;;;;16.65;6.35;;;;;;;;;;5026623;28;20030;-69
2022/08/22 08:26:02;;;;;;;23.80;6.82;;;;;;;;;;5037886;28;20043;-67
2022/08/22 08:28:36;;;;;;;13.82;6.30;;;;;;;;;;5044545;28;20033;-67
2022/08/22 08:31:07;;;;;;;20.83;6.50;;;;;;;;;;5027137;28;20133;-69
2022/08/22 08:33:34;;;;;;;18.25;6.55;;;;;;;;;;5027142;28;20029;-69
2022/08/22 08:36:19;;;;;;;17.55;6.40;;;;;;;;;;5048218;28;20029;-69
2022/08/22 08:39:00;;;;;;;18.85;6.72;;;;;;;;;;5028271;28;20026;-68
2022/08/22 08:41:26;;;;;;;12.43;5.60;;;;;;;;;;5010281;28;20033;-69
2022/08/22 08:44:00;;;;;;;12.05;5.03;;;;;;;;;;5020557;28;20029;-69
2022/08/22 08:46:33;;;;;;;14.43;5.90;;;;;;;;;;5010660;28;20500;-70
2022/08/22 08:48:59;;;;;;;17.58;5.38;;;;;;;;;;4963898;28;20473;-69
2022/08/22 08:51:28;;;;;;;18.80;6.07;;;;;;;;;;5031233;28;20025;-69
2022/08/22 08:54:14;;;;;;;15.88;5.82;;;;;;;;;;5047929;28;20025;-68
2022/08/22 08:56:50;;;;;;;14.07;5.20;;;;;;;;;;4983686;28;20037;-69
2022/08/22 08:59:35;;;;;;;14.82;5.38;;;;;;;;;;4945361;28;20063;-69
2022/08/22 09:02:01;;;;;;;12.70;4.45;;;;;;;;;;4945772;28;20587;-69
2022/08/22 09:04:45;;;;;;;18.48;5.45;;;;;;;;;;5013583;28;20041;-69
2022/08/22 09:07:31;;;;;;;19.67;5.72;;;;;;;;;;4951754;28;20031;-68
2022/08/22 09:09:57;;;;;;;13.98;4.65;;;;;;;;;;4950045;28;20065;-68
2022/08/22 09:12:25;;;;;;;15.55;4.30;;;;;;;;;;4947142;28;20082;-68
2022/08/22 09:14:52;;;;;;;12.45;4.63;;;;;;;;;;4947490;28;20505;-67
2022/08/22 09:17:27;;;;;;;15.32;4.82;;;;;;;;;;4945937;28;20073;-68
2022/08/22 09:20:12;;;;;;;14.38;4.88;;;;;;;;;;4961184;28;20082;-67
2022/08/22 09:22:43;;;;;;;14.55;4.43;;;;;;;;;;4948730;29;20031;-68
2022/08/22 09:25:36;;;;;;;12.95;4.93;;;;;;;;;;5019224;28;20400;-68
2022/08/22 09:28:20;;;;;;;13.20;4.55;;;;;;;;;;4947158;28;20508;-67
2022/08/22 09:30:55;;;;;;;13.13;4.55;;;;;;;;;;4945380;28;20024;-68
2022/08/22 09:33:23;;;;;;;15.90;3.63;;;;;;;;;;4954457;28;20035;-68
2022/08/22 09:36:01;;;;;;;11.15;3.22;;;;;;;;;;4998026;28;20034;-67
2022/08/22 09:38:54;;;;;;;10.88;3.47;;;;;;;;;;4928339;28;20031;-68
2022/08/22 09:41:20;;;;;;;11.13;3.17;;;;;;;;;;4959527;28;20047;-68
2022/08/22 09:43:49;;;;;;;12.70;3.47;;;;;;;;;;4947525;29;20038;-68
2022/08/22 09:46:18;;;;;;;11.57;3.15;;;;;;;;;;4963090;28;20041;-67
2022/08/22 09:48:59;;;;;;;12.40;3.70;;;;;;;;;;4951379;28;20053;-67
2022/08/22 09:51:37;;;;;;;12.23;3.55;;;;;;;;;;4949421;29;20034;-67
2022/08/22 09:54:13;;;;;;;10.35;3.13;;;;;;;;;;4946559;28;20027;-68
2022/08/22 09:57:02;;;;;;;10.93;3.30;;;;;;;;;;4978587;28;20028;-68
2022/08/22 09:59:28;;;;;;;9.57;2.97;;;;;;;;;;4937518;29;20476;-68
2022/08/22 10:02:01;;;;;;;15.43;3.92;;;;;;;;;;4946654;28;20488;-68
2022/08/22 10:04:39;;;;;;;14.15;3.50;;;;;;;;;;4948398;29;20130;-69
2022/08/22 10:07:14;;;;;;;15.18;3.30;;;;;;;;;;4949474;29;20051;-67
2022/08/22 10:09:40;;;;;;;14.07;3.40;;;;;;;;;;4953706;28;20031;-67
2022/08/22 10:12:09;;;;;;;10.82;3.38;;;;;;;;;;4949025;28;20038;-69
2022/08/22 10:14:55;;;;;;;12.02;3.72;;;;;;;;;;4946831;28;20569;-67
2022/08/22 10:17:35;;;;;;;11.52;3.75;;;;;;;;;;4980161;28;20046;-69
2022/08/22 10:20:13;;;;;;;11.85;4.10;;;;;;;;;;4947306;28;20125;-69
2022/08/22 10:23:04;;;;;;;14.80;4.30;;;;;;;;;;4964579;28;20043;-71
2022/08/22 10:25:40;;;;;;;10.23;3.65;;;;;;;;;;4937636;28;20041;-70
2022/08/22 10:28:16;;;;;;;13.02;4.00;;;;;;;;;;4948629;28;20031;-70
2022/08/22 10:30:55;;;;;;;13.82;4.10;;;;;;;;;;4947704;29;20031;-67
2022/08/22 10:33:25;;;;;;;9.57;3.85;;;;;;;;;;4961740;28;20048;-67
2022/08/22 10:35:51;;;;;;;10.63;3.80;;;;;;;;;;4945421;28;20046;-68
2022/08/22 10:38:25;;;;;;;16.15;4.10;;;;;;;;;;5002879;28;20033;-68
2022/08/22 10:40:51;;;;;;;16.08;4.65;;;;;;;;;;4959638;28;20035;-67
2022/08/22 10:43:23;;;;;;;12.65;3.75;;;;;;;;;;4967577;28;20042;-68
2022/08/22 10:45:54;;;;;;;13.40;3.78;;;;;;;;;;4956198;28;20359;-68
2022/08/22 10:48:20;;;;;;;10.25;3.80;;;;;;;;;;4946082;28;20050;-68
2022/08/22 10:50:48;;;;;;;14.35;3.95;;;;;;;;;;4945831;28;20117;-69
2022/08/22 10:53:32;;;;;;;9.93;3.83;;;;;;;;;;4953200;28;20037;-67
2022/08/22 10:56:33;;;;;;;15.55;3.97;;;;;;;;;;4948346;28;20035;-69
2022/08/22 10:59:08;;;;;;;11.77;3.30;;;;;;;;;;4987488;28;20468;-68
2022/08/22 11:01:37;;;;;;;16.13;3.80;;;;;;;;;;4949151;28;20081;-68
2022/08/22 11:04:10;;;;;;;14.02;4.20;;;;;;;;;;4949384;29;20073;-69
2022/08/22 11:06:43;;;;;;;12.05;3.83;;;;;;;;;;4984179;28;20033;-69
2022/08/22 11:09:25;;;;;;;12.60;3.80;;;;;;;;;;5025633;28;20118;-68
2022/08/22 11:11:57;;;;;;;14.52;3.78;;;;;;;;;;4937183;29;20038;-68
2022/08/22 11:14:32;;;;;;;12.27;3.83;;;;;;;;;;4994808;28;20038;-68
2022/08/22 11:17:09;;;;;;;15.00;3.60;;;;;;;;;;4946773;28;20487;-68
2022/08/22 11:19:43;;;;;;;12.75;4.10;;;;;;;;;;4948843;29;20032;-69
2022/08/22 11:22:15;;;;;;;11.98;3.38;;;;;;;;;;4977599;28;20031;-68
2022/08/22 11:25:01;;;;;;;14.25;3.92;;;;;;;;;;4995288;28;20066;-69
2022/08/22 11:27:44;;;;;;;13.85;3.80;;;;;;;;;;4925946;28;20039;-68
2022/08/22 11:30:13;;;;;;;14.98;3.33;;;;;;;;;;4962102;28;20038;-68
2022/08/22 11:32:48;;;;;;;19.13;4.32;;;;;;;;;;4947701;28;20417;-68
2022/08/22 11:35:23;;;;;;;13.10;3.65;;;;;;;;;;4929012;28;20034;-68
2022/08/22 11:38:02;;;;;;;11.00;3.80;;;;;;;;;;4992747;28;20120;-68
2022/08/22 11:40:31;;;;;;;16.42;3.83;;;;;;;;;;4952165;28;20051;-68
2022/08/22 11:43:06;;;;;;;15.77;3.75;;;;;;;;;;4934451;28;20230;-68
2022/08/22 11:45:36;;;;;;;12.65;3.75;;;;;;;;;;4925941;28;20116;-69
2022/08/22 11:48:02;;;;;;;;;;;;;;;;;;4975587;28;20432;-68
2022/08/22 11:50:36;;;;;;;9.00;4.20;;;;;;;;;;4928384;29;20414;-69
2022/08/22 11:53:18;;;;;;;15.38;4.22;;;;;;;;;;4938574;28;20035;-69
2022/08/22 11:55:47;;;;;;;16.33;4.40;;;;;;;;;;4927285;28;20044;-68
2022/08/22 11:58:25;;;;;;;15.27;3.63;;;;;;;;;;4960287;28;20037;-68
2022/08/22 12:01:14;;;;;;;14.65;5.05;;;;;;;;;;4940095;28;20035;-69
2022/08/22 12:03:40;;;;;;;10.52;3.85;;;;;;;;;;4955338;28;20040;-69
2022/08/22 12:06:11;;;;;;;13.00;3.80;;;;;;;;;;4945233;28;20504;-68
2022/08/22 12:08:49;;;;;;;15.98;3.92;;;;;;;;;;4947191;28;20531;-69
2022/08/22 12:11:25;;;;;;;14.85;3.85;;;;;;;;;;4944992;28;20046;-69
2022/08/22 12:13:54;;;;;;;13.98;3.90;;;;;;;;;;4949825;28;20496;-69
2022/08/22 12:16:27;;;;;;;13.93;3.70;;;;;;;;;;4958134;28;20081;-69
2022/08/22 12:18:57;;;;;;;12.38;3.42;;;;;;;;;;4976643;28;20113;-70
2022/08/22 12:22:02;;;;;;;12.38;3.92;;;;;;;;;;4964882;28;20031;-68
2022/08/22 12:24:36;;;;;;;14.60;3.72;;;;;;;;;;4987997;28;20038;-69
2022/08/22 12:27:02;;;;;;;11.40;3.72;;;;;;;;;;4988541;28;20113;-69
2022/08/22 12:29:43;;;;;;;19.17;4.35;;;;;;;;;;4972405;28;20415;-68
2022/08/22 12:32:21;;;;;;;11.45;3.08;;;;;;;;;;4954716;28;20031;-70
2022/08/22 12:34:50;;;;;;;10.18;2.70;;;;;;;;;;4947207;28;20032;-70
2022/08/22 12:37:24;;;;;;;11.80;3.35;;;;;;;;;;4959969;28;20065;-69
2022/08/22 12:40:00;;;;;;;13.48;3.90;;;;;;;;;;4944182;28;20035;-69
2022/08/22 12:42:29;;;;;;;12.82;3.33;;;;;;;;;;4967620;28;20119;-69
2022/08/22 12:45:14;;;;;;;10.90;3.03;;;;;;;;;;4945971;28;20027;-69
2022/08/22 12:47:50;;;;;;;11.63;2.50;;;;;;;;;;4986513;28;20053;-69
2022/08/22 12:50:16;;;;;;;7.43;2.70;;;;;;;;;;5043732;28;20037;-69
2022/08/22 12:52:42;;;;;;;9.45;2.92;;;;;;;;;;5029573;28;20029;-69
2022/08/22 12:55:14;;;;;;;9.90;3.20;;;;;;;;;;5028859;28;20056;-69
2022/08/22 12:57:46;;;;;;;13.05;3.95;;;;;;;;;;5025697;28;20084;-69
2022/08/22 13:00:24;;;;;;;6.68;2.42;;;;;;;;;;5026644;28;20033;-69
2022/08/22 13:02:54;;;;;;;8.52;2.60;;;;;;;;;;5010235;28;20041;-69
2022/08/22 13:05:22;;;;;;;7.97;2.40;;;;;;;;;;5014936;28;20033;-69
2022/08/22 13:08:08;;;;;;;9.95;2.55;;;;;;;;;;5022273;28;20022;-69
2022/08/22 13:10:40;;;;;;;9.07;2.38;;;;;;;;;;5028043;28;20034;-68
2022/08/22 13:13:07;;;;;;;6.63;2.17;;;;;;;;;;5027971;28;20083;-68
2022/08/22 13:15:38;;;;;;;9.02;2.90;;;;;;;;;;5028449;28;20088;-68
2022/08/22 13:18:07;;;;;;;10.75;2.65;;;;;;;;;;5028831;28;20021;-70
2022/08/22 13:20:38;;;;;;;10.68;2.53;;;;;;;;;;5028053;28;20022;-70
2022/08/22 13:23:36;;;;;;;9.10;2.95;;;;;;;;;;5025112;28;20021;-71
2022/08/22 13:26:08;;;;;;;9.27;2.67;;;;;;;;;;5004802;28;20033;-70
2022/08/22 13:28:57;;;;;;;9.98;2.78;;;;;;;;;;5028785;28;20065;-70
2022/08/22 13:31:31;;;;;;;8.85;2.92;;;;;;;;;;5017550;28;20124;-69
2022/08/22 13:34:02;;;;;;;12.43;2.97;;;;;;;;;;5022541;28;20092;-68
2022/08/22 13:36:29;;;;;;;8.20;2.70;;;;;;;;;;5028084;28;20026;-68
2022/08/22 13:38:56;;;;;;;11.88;2.97;;;;;;;;;;5025412;28;20301;-68
2022/08/22 13:41:25;;;;;;;9.18;2.63;;;;;;;;;;5019091;28;20033;-68
2022/08/22 13:44:06;;;;;;;10.77;2.65;;;;;;;;;;5026701;28;20049;-68
2022/08/22 13:46:34;;;;;;;7.97;2.80;;;;;;;;;;5030569;28;20033;-69
2022/08/22 13:49:01;;;;;;;8.65;2.60;;;;;;;;;;5041592;28;20420;-68
2022/08/22 13:51:30;;;;;;;10.23;2.97;;;;;;;;;;5027503;28;20029;-68
2022/08/22 13:53:56;;;;;;;5.88;2.40;;;;;;;;;;5026984;28;20030;-68
2022/08/22 13:56:25;;;;;;;8.30;2.28;;;;;;;;;;5028005;28;20033;-67
2022/08/22 13:58:54;;;;;;;10.27;2.93;;;;;;;;;;5025779;28;20108;-67
2022/08/22 14:01:40;;;;;;;8.90;2.63;;;;;;;;;;5021859;28;20084;-68
2022/08/22 14:04:12;;;;;;;9.02;3.20;;;;;;;;;;5021542;28;20076;-68
2022/08/22 14:06:51;;;;;;;9.23;2.63;;;;;;;;;;5025296;28;20064;-68
2022/08/22 14:09:27;;;;;;;9.57;2.78;;;;;;;;;;5024356;28;20030;-68
2022/08/22 14:12:16;;;;;;;8.50;2.70;;;;;;;;;;5028405;28;20037;-67
2022/08/22 14:14:46;;;;;;;11.15;3.17;;;;;;;;;;5015927;28;20038;-69
2022/08/22 14:17:18;;;;;;;10.90;3.15;;;;;;;;;;5025218;28;20030;-69
2022/08/22 14:19:47;;;;;;;9.73;2.80;;;;;;;;;;5009338;28;20025;-69
2022/08/22 14:22:18;;;;;;;10.57;2.45;;;;;;;;;;5009493;28;20014;-69
2022/08/22 14:24:47;;;;;;;7.40;2.53;;;;;;;;;;5026282;28;20040;-71
2022/08/22 14:27:26;;;;;;;10.52;2.88;;;;;;;;;;5023907;28;20414;-69
2022/08/22 14:29:56;;;;;;;14.87;3.20;;;;;;;;;;5026252;28;20106;-70
2022/08/22 14:32:22;;;;;;;7.32;2.60;;;;;;;;;;5033113;28;20037;-70
2022/08/22 14:34:54;;;;;;;11.63;3.38;;;;;;;;;;5027324;28;20458;-70
2022/08/22 14:37:23;;;;;;;8.45;3.35;;;;;;;;;;5025227;28;20109;-71
2022/08/22 14:39:57;;;;;;;9.50;2.50;;;;;;;;;;5031921;28;20060;-69
2022/08/22 14:42:28;;;;;;;8.40;2.67;;;;;;;;;;5016985;28;20034;-70
2022/08/22 14:45:00;;;;;;;13.85;2.90;;;;;;;;;;5028622;28;20088;-68
2022/08/22 14:47:44;;;;;;;12.75;2.70;;;;;;;;;;5032367;28;20054;-68
2022/08/22 14:50:30;;;;;;;10.80;3.03;;;;;;;;;;5031994;28;20341;-70
2022/08/22 14:53:25;;;;;;;10.23;3.28;;;;;;;;;;5028589;28;20025;-70
2022/08/22 14:56:13;;;;;;;11.13;3.03;;;;;;;;;;5013833;28;20460;-69
2022/08/22 14:58:47;;;;;;;11.07;3.10;;;;;;;;;;5028601;28;20029;-70
2022/08/22 15:01:15;;;;;;;13.50;3.38;;;;;;;;;;5027416;28;20038;-70
2022/08/22 15:03:42;;;;;;;9.43;2.95;;;;;;;;;;5024741;28;20033;-69
2022/08/22 15:06:11;;;;;;;7.93;2.75;;;;;;;;;;5026949;28;20037;-70
2022/08/22 15:08:39;;;;;;;7.88;2.50;;;;;;;;;;5028643;28;20116;-69
2022/08/22 15:11:11;;;;;;;8.77;2.95;;;;;;;;;;5014110;28;20056;-70
2022/08/22 15:13:39;;;;;;;12.63;3.40;;;;;;;;;;5028016;28;20112;-70